sensor_id;sensor_type;location;lat;lon;timestamp;pressure;altitude;pressure_sealevel;temperature;humidity
19457;BME280;9867;48.094;11.478;2022-07-11T00:01:38;95844.50;;;15.40;100.00
19457;BME280;9867;48.094;11.478;2022-07-11T00:04:06;95831.53;;;15.47;100.00
19457;BME280;9867;48.094;11.478;2022-07-11T00:06:34;95832.09;;;15.49;100.00
19457;BME280;9867;48.094;11.478;2022-07-11T00:09:02;95834.88;;;15.54;100.00
19457;BME280;9867;48.094;11.478;2022-07-11T00:11:30;95827.06;;;15.29;100.00
19457;BME280;9867;48.094;11.478;2022-07-11T00:13:58;95819.13;;;15.30;100.00
19457;BME280;9867;48.094;11.478;2022-07-11T00:16:27;95826.16;;;15.48;100.00
19457;BME280;9867;48.094;11.478;2022-07-11T00:18:55;95812.56;;;15.28;100.00
19457;BME280;9867;48.094;11.478;2022-07-11T00:21:23;95815.22;;;15.15;100.00
19457;BME280;9867;48.094;11.478;2022-07-11T00:23:51;95812.56;;;15.28;100.00
19457;BME280;9867;48.094;11.478;2022-07-11T00:26:19;95816.13;;;15.33;100.00
19457;BME280;9867;48.094;11.478;2022-07-11T00:28:46;95818.63;;;15.40;100.00
19457;BME280;9867;48.094;11.478;2022-07-11T00:31:14;95818.03;;;15.38;100.00
19457;BME280;9867;48.094;11.478;2022-07-11T00:33:44;95811.25;;;15.44;100.00
19457;BME280;9867;48.094;11.478;2022-07-11T00:36:11;95812.09;;;15.38;100.00
19457;BME280;9867;48.094;11.478;2022-07-11T00:38:39;95809.84;;;15.48;100.00
19457;BME280;9867;48.094;11.478;2022-07-11T00:41:07;95811.47;;;15.42;100.00
19457;BME280;9867;48.094;11.478;2022-07-11T00:43:38;95805.38;;;15.61;100.00
19457;BME280;9867;48.094;11.478;2022-07-11T00:46:08;95809.75;;;15.61;100.00
19457;BME280;9867;48.094;11.478;2022-07-11T00:48:36;95801.28;;;15.47;100.00
19457;BME280;9867;48.094;11.478;2022-07-11T00:51:05;95802.44;;;15.51;100.00
19457;BME280;9867;48.094;11.478;2022-07-11T00:53:34;95799.88;;;15.51;100.00
19457;BME280;9867;48.094;11.478;2022-07-11T00:56:02;95796.88;;;15.54;100.00
19457;BME280;9867;48.094;11.478;2022-07-11T00:58:30;95802.94;;;15.66;100.00
19457;BME280;9867;48.094;11.478;2022-07-11T01:00:58;95788.94;;;15.56;100.00
19457;BME280;9867;48.094;11.478;2022-07-11T01:03:27;95795.53;;;15.45;100.00
19457;BME280;9867;48.094;11.478;2022-07-11T01:05:55;95794.78;;;15.38;100.00
19457;BME280;9867;48.094;11.478;2022-07-11T01:08:24;95793.31;;;15.17;100.00
19457;BME280;9867;48.094;11.478;2022-07-11T01:10:55;95791.53;;;15.18;100.00
19457;BME280;9867;48.094;11.478;2022-07-11T01:13:23;95786.56;;;15.16;100.00
19457;BME280;9867;48.094;11.478;2022-07-11T01:15:58;95793.09;;;15.57;100.00
19457;BME280;9867;48.094;11.478;2022-07-11T01:18:33;95790.81;;;15.35;100.00
19457;BME280;9867;48.094;11.478;2022-07-11T01:21:02;95787.13;;;15.25;100.00
19457;BME280;9867;48.094;11.478;2022-07-11T01:23:34;95789.53;;;15.51;100.00
19457;BME280;9867;48.094;11.478;2022-07-11T01:26:01;95784.94;;;15.53;100.00
19457;BME280;9867;48.094;11.478;2022-07-11T01:28:29;95783.22;;;15.72;100.00
19457;BME280;9867;48.094;11.478;2022-07-11T01:30:57;95785.47;;;15.87;100.00
19457;BME280;9867;48.094;11.478;2022-07-11T01:33:25;95786.19;;;15.94;100.00
19457;BME280;9867;48.094;11.478;2022-07-11T01:35:53;95787.84;;;15.88;100.00
19457;BME280;9867;48.094;11.478;2022-07-11T01:38:21;95780.16;;;15.82;100.00
19457;BME280;9867;48.094;11.478;2022-07-11T01:40:50;95783.28;;;15.84;100.00
19457;BME280;9867;48.094;11.478;2022-07-11T01:43:18;95775.66;;;15.71;100.00
19457;BME280;9867;48.094;11.478;2022-07-11T01:45:46;95783.47;;;15.64;100.00
19457;BME280;9867;48.094;11.478;2022-07-11T01:48:14;95772.91;;;15.65;100.00
19457;BME280;9867;48.094;11.478;2022-07-11T01:50:41;95783.22;;;15.72;100.00
19457;BME280;9867;48.094;11.478;2022-07-11T01:53:09;95784.22;;;15.71;100.00
19457;BME280;9867;48.094;11.478;2022-07-11T01:55:37;95774.50;;;15.66;100.00
19457;BME280;9867;48.094;11.478;2022-07-11T01:58:26;95777.19;;;15.53;100.00
19457;BME280;9867;48.094;11.478;2022-07-11T02:00:55;95772.94;;;15.34;100.00
19457;BME280;9867;48.094;11.478;2022-07-11T02:03:23;95769.47;;;15.47;100.00
19457;BME280;9867;48.094;11.478;2022-07-11T02:05:52;95770.63;;;15.57;100.00
19457;BME280;9867;48.094;11.478;2022-07-11T02:08:19;95774.53;;;15.60;100.00
19457;BME280;9867;48.094;11.478;2022-07-11T02:10:49;95760.41;;;15.62;100.00
19457;BME280;9867;48.094;11.478;2022-07-11T02:13:20;95757.16;;;15.42;100.00
19457;BME280;9867;48.094;11.478;2022-07-11T02:15:51;95756.72;;;15.20;100.00
19457;BME280;9867;48.094;11.478;2022-07-11T02:18:20;95754.38;;;15.44;100.00
19457;BME280;9867;48.094;11.478;2022-07-11T02:20:48;95761.19;;;15.63;100.00
19457;BME280;9867;48.094;11.478;2022-07-11T02:23:17;95762.06;;;15.50;100.00
19457;BME280;9867;48.094;11.478;2022-07-11T02:25:45;95755.38;;;15.43;100.00
19457;BME280;9867;48.094;11.478;2022-07-11T02:28:14;95761.28;;;15.56;100.00
19457;BME280;9867;48.094;11.478;2022-07-11T02:30:43;95759.16;;;15.40;100.00
19457;BME280;9867;48.094;11.478;2022-07-11T02:33:13;95753.84;;;15.35;100.00
19457;BME280;9867;48.094;11.478;2022-07-11T02:35:43;95763.13;;;15.43;100.00
19457;BME280;9867;48.094;11.478;2022-07-11T02:38:11;95767.44;;;14.92;100.00
19457;BME280;9867;48.094;11.478;2022-07-11T02:40:40;95763.16;;;14.73;100.00
19457;BME280;9867;48.094;11.478;2022-07-11T02:43:08;95758.81;;;14.67;100.00
19457;BME280;9867;48.094;11.478;2022-07-11T02:45:36;95758.84;;;14.98;100.00
19457;BME280;9867;48.094;11.478;2022-07-11T02:48:04;95764.53;;;15.39;100.00
19457;BME280;9867;48.094;11.478;2022-07-11T02:50:34;95766.44;;;15.25;100.00
19457;BME280;9867;48.094;11.478;2022-07-11T02:53:02;95764.16;;;15.10;100.00
19457;BME280;9867;48.094;11.478;2022-07-11T02:55:30;95756.66;;;15.33;100.00
19457;BME280;9867;48.094;11.478;2022-07-11T02:57:58;95761.69;;;15.22;100.00
19457;BME280;9867;48.094;11.478;2022-07-11T03:00:26;95760.72;;;15.16;100.00
19457;BME280;9867;48.094;11.478;2022-07-11T03:02:54;95764.41;;;15.33;100.00
19457;BME280;9867;48.094;11.478;2022-07-11T03:05:22;95764.88;;;15.49;100.00
19457;BME280;9867;48.094;11.478;2022-07-11T03:07:51;95765.41;;;15.32;100.00
19457;BME280;9867;48.094;11.478;2022-07-11T03:10:19;95761.97;;;15.39;100.00
19457;BME280;9867;48.094;11.478;2022-07-11T03:12:49;95762.16;;;15.37;100.00
19457;BME280;9867;48.094;11.478;2022-07-11T03:15:17;95756.38;;;15.42;100.00
19457;BME280;9867;48.094;11.478;2022-07-11T03:17:46;95756.13;;;15.50;100.00
19457;BME280;9867;48.094;11.478;2022-07-11T03:20:14;95755.31;;;15.56;100.00
19457;BME280;9867;48.094;11.478;2022-07-11T03:22:42;95749.91;;;15.57;100.00
19457;BME280;9867;48.094;11.478;2022-07-11T03:25:11;95751.94;;;15.49;100.00
19457;BME280;9867;48.094;11.478;2022-07-11T03:27:39;95752.47;;;15.32;100.00
19457;BME280;9867;48.094;11.478;2022-07-11T03:30:07;95757.44;;;15.34;100.00
19457;BME280;9867;48.094;11.478;2022-07-11T03:32:36;95750.38;;;15.16;100.00
19457;BME280;9867;48.094;11.478;2022-07-11T03:35:05;95757.66;;;15.32;100.00
19457;BME280;9867;48.094;11.478;2022-07-11T03:37:51;95756.38;;;15.66;100.00
19457;BME280;9867;48.094;11.478;2022-07-11T03:40:20;95756.13;;;15.50;100.00
19457;BME280;9867;48.094;11.478;2022-07-11T03:42:49;95749.38;;;15.17;100.00
19457;BME280;9867;48.094;11.478;2022-07-11T03:45:17;95757.28;;;15.29;100.00
19457;BME280;9867;48.094;11.478;2022-07-11T03:47:45;95757.31;;;15.47;100.00
19457;BME280;9867;48.094;11.478;2022-07-11T03:50:14;95755.91;;;15.51;100.00
19457;BME280;9867;48.094;11.478;2022-07-11T03:52:42;95756.91;;;15.75;100.00
19457;BME280;9867;48.094;11.478;2022-07-11T03:55:10;95749.53;;;15.79;100.00
19457;BME280;9867;48.094;11.478;2022-07-11T03:57:39;95752.00;;;15.67;100.00
19457;BME280;9867;48.094;11.478;2022-07-11T04:00:08;95761.47;;;15.80;100.00
19457;BME280;9867;48.094;11.478;2022-07-11T04:02:36;95757.91;;;15.74;100.00
19457;BME280;9867;48.094;11.478;2022-07-11T04:05:05;95759.91;;;15.47;100.00
19457;BME280;9867;48.094;11.478;2022-07-11T04:07:33;95756.06;;;15.31;100.00
19457;BME280;9867;48.094;11.478;2022-07-11T04:10:01;95750.56;;;15.46;100.00
19457;BME280;9867;48.094;11.478;2022-07-11T04:12:29;95754.81;;;15.65;100.00
19457;BME280;9867;48.094;11.478;2022-07-11T04:14:58;95755.72;;;15.78;100.00
19457;BME280;9867;48.094;11.478;2022-07-11T04:17:26;95747.94;;;15.53;100.00
19457;BME280;9867;48.094;11.478;2022-07-11T04:19:54;95762.22;;;15.30;100.00
19457;BME280;9867;48.094;11.478;2022-07-11T04:22:22;95760.00;;;15.09;100.00
19457;BME280;9867;48.094;11.478;2022-07-11T04:24:50;95770.94;;;15.05;100.00
19457;BME280;9867;48.094;11.478;2022-07-11T04:27:18;95757.00;;;15.37;100.00
19457;BME280;9867;48.094;11.478;2022-07-11T04:29:48;95760.13;;;15.46;100.00
19457;BME280;9867;48.094;11.478;2022-07-11T04:32:18;95759.94;;;15.72;100.00
19457;BME280;9867;48.094;11.478;2022-07-11T04:34:46;95762.56;;;15.65;100.00
19457;BME280;9867;48.094;11.478;2022-07-11T04:37:14;95748.59;;;15.42;100.00
19457;BME280;9867;48.094;11.478;2022-07-11T04:39:42;95754.13;;;15.77;100.00
19457;BME280;9867;48.094;11.478;2022-07-11T04:42:12;95768.94;;;15.88;100.00
19457;BME280;9867;48.094;11.478;2022-07-11T04:44:40;95769.03;;;15.99;100.00
19457;BME280;9867;48.094;11.478;2022-07-11T04:47:08;95771.78;;;16.05;100.00
19457;BME280;9867;48.094;11.478;2022-07-11T04:49:37;95765.72;;;15.92;100.00
19457;BME280;9867;48.094;11.478;2022-07-11T04:52:05;95765.25;;;15.77;100.00
19457;BME280;9867;48.094;11.478;2022-07-11T04:54:34;95769.94;;;15.62;100.00
19457;BME280;9867;48.094;11.478;2022-07-11T04:57:02;95766.56;;;15.61;100.00
19457;BME280;9867;48.094;11.478;2022-07-11T04:59:30;95762.72;;;15.71;100.00
19457;BME280;9867;48.094;11.478;2022-07-11T05:01:58;95764.91;;;15.74;100.00
19457;BME280;9867;48.094;11.478;2022-07-11T05:04:26;95770.03;;;15.80;100.00
19457;BME280;9867;48.094;11.478;2022-07-11T05:06:55;95774.69;;;15.90;100.00
19457;BME280;9867;48.094;11.478;2022-07-11T05:09:23;95767.16;;;16.07;100.00
19457;BME280;9867;48.094;11.478;2022-07-11T05:11:51;95776.59;;;16.37;100.00
19457;BME280;9867;48.094;11.478;2022-07-11T05:14:19;95785.38;;;16.18;100.00
19457;BME280;9867;48.094;11.478;2022-07-11T05:16:47;95785.94;;;16.38;100.00
19457;BME280;9867;48.094;11.478;2022-07-11T05:19:15;95784.41;;;16.31;100.00
19457;BME280;9867;48.094;11.478;2022-07-11T05:21:42;95789.69;;;16.43;100.00
19457;BME280;9867;48.094;11.478;2022-07-11T05:24:12;95797.59;;;16.29;100.00
19457;BME280;9867;48.094;11.478;2022-07-11T05:26:40;95788.41;;;16.52;100.00
19457;BME280;9867;48.094;11.478;2022-07-11T05:29:09;95793.94;;;16.74;100.00
19457;BME280;9867;48.094;11.478;2022-07-11T05:31:37;95791.19;;;16.50;100.00
19457;BME280;9867;48.094;11.478;2022-07-11T05:34:05;95793.38;;;16.53;100.00
19457;BME280;9867;48.094;11.478;2022-07-11T05:36:32;95798.78;;;16.70;100.00
19457;BME280;9867;48.094;11.478;2022-07-11T05:39:00;95789.63;;;16.67;100.00
19457;BME280;9867;48.094;11.478;2022-07-11T05:41:30;95795.34;;;16.88;100.00
19457;BME280;9867;48.094;11.478;2022-07-11T05:43:57;95793.03;;;16.98;100.00
19457;BME280;9867;48.094;11.478;2022-07-11T05:46:25;95796.88;;;17.37;100.00
19457;BME280;9867;48.094;11.478;2022-07-11T05:48:53;95790.19;;;17.29;100.00
19457;BME280;9867;48.094;11.478;2022-07-11T05:51:22;95801.84;;;17.09;100.00
19457;BME280;9867;48.094;11.478;2022-07-11T05:53:50;95799.59;;;17.00;100.00
19457;BME280;9867;48.094;11.478;2022-07-11T05:56:18;95795.88;;;17.08;100.00
19457;BME280;9867;48.094;11.478;2022-07-11T05:58:47;95801.03;;;16.78;100.00
19457;BME280;9867;48.094;11.478;2022-07-11T06:01:15;95801.44;;;16.63;100.00
19457;BME280;9867;48.094;11.478;2022-07-11T06:03:43;95801.22;;;16.65;100.00
19457;BME280;9867;48.094;11.478;2022-07-11T06:06:12;95806.44;;;16.58;100.00
19457;BME280;9867;48.094;11.478;2022-07-11T06:08:40;95795.16;;;16.71;100.00
19457;BME280;9867;48.094;11.478;2022-07-11T06:11:07;95798.19;;;16.50;100.00
19457;BME280;9867;48.094;11.478;2022-07-11T06:13:37;95797.28;;;16.56;100.00
19457;BME280;9867;48.094;11.478;2022-07-11T06:16:08;95798.31;;;16.55;100.00
19457;BME280;9867;48.094;11.478;2022-07-11T06:18:37;95790.47;;;16.80;100.00
19457;BME280;9867;48.094;11.478;2022-07-11T06:21:05;95793.31;;;16.90;100.00
19457;BME280;9867;48.094;11.478;2022-07-11T06:23:34;95791.16;;;16.87;100.00
19457;BME280;9867;48.094;11.478;2022-07-11T06:26:03;95801.56;;;16.68;100.00
19457;BME280;9867;48.094;11.478;2022-07-11T06:28:32;95789.66;;;16.79;100.00
19457;BME280;9867;48.094;11.478;2022-07-11T06:31:00;95798.19;;;16.68;100.00
19457;BME280;9867;48.094;11.478;2022-07-11T06:33:30;95795.63;;;16.80;100.00
19457;BME280;9867;48.094;11.478;2022-07-11T06:35:58;95791.19;;;17.17;100.00
19457;BME280;9867;48.094;11.478;2022-07-11T06:38:26;95791.47;;;17.50;100.00
19457;BME280;9867;48.094;11.478;2022-07-11T06:40:55;95779.09;;;17.64;100.00
19457;BME280;9867;48.094;11.478;2022-07-11T06:43:23;95781.91;;;17.62;100.00
19457;BME280;9867;48.094;11.478;2022-07-11T06:45:52;95782.56;;;17.46;100.00
19457;BME280;9867;48.094;11.478;2022-07-11T06:48:21;95782.00;;;17.44;100.00
19457;BME280;9867;48.094;11.478;2022-07-11T06:50:50;95783.34;;;17.47;100.00
19457;BME280;9867;48.094;11.478;2022-07-11T06:53:18;95785.03;;;17.41;100.00
19457;BME280;9867;48.094;11.478;2022-07-11T06:55:46;95788.09;;;17.61;100.00
19457;BME280;9867;48.094;11.478;2022-07-11T06:58:14;95776.72;;;17.62;100.00
19457;BME280;9867;48.094;11.478;2022-07-11T07:00:59;95776.38;;;17.47;100.00
19457;BME280;9867;48.094;11.478;2022-07-11T07:03:28;95782.84;;;17.80;100.00
19457;BME280;9867;48.094;11.478;2022-07-11T07:05:58;95779.97;;;17.58;100.00
19457;BME280;9867;48.094;11.478;2022-07-11T07:08:28;95782.84;;;17.68;100.00
19457;BME280;9867;48.094;11.478;2022-07-11T07:10:57;95785.16;;;17.58;100.00
19457;BME280;9867;48.094;11.478;2022-07-11T07:13:31;95788.03;;;17.80;100.00
19457;BME280;9867;48.094;11.478;2022-07-11T07:15:59;95779.69;;;17.78;100.00
19457;BME280;9867;48.094;11.478;2022-07-11T07:18:27;95784.88;;;18.01;100.00
19457;BME280;9867;48.094;11.478;2022-07-11T07:20:55;95784.75;;;17.96;100.00
19457;BME280;9867;48.094;11.478;2022-07-11T07:23:24;95783.97;;;18.19;100.00
19457;BME280;9867;48.094;11.478;2022-07-11T07:25:52;95787.44;;;18.24;100.00
19457;BME280;9867;48.094;11.478;2022-07-11T07:28:20;95783.03;;;18.36;100.00
19457;BME280;9867;48.094;11.478;2022-07-11T07:30:49;95782.44;;;18.46;100.00
19457;BME280;9867;48.094;11.478;2022-07-11T07:33:17;95782.47;;;18.23;100.00
19457;BME280;9867;48.094;11.478;2022-07-11T07:36:05;95789.06;;;18.77;100.00
19457;BME280;9867;48.094;11.478;2022-07-11T07:38:35;95781.38;;;19.11;100.00
19457;BME280;9867;48.094;11.478;2022-07-11T07:41:03;95787.53;;;19.38;100.00
19457;BME280;9867;48.094;11.478;2022-07-11T07:43:31;95786.09;;;19.59;100.00
19457;BME280;9867;48.094;11.478;2022-07-11T07:45:59;95779.19;;;19.36;92.12
19457;BME280;9867;48.094;11.478;2022-07-11T07:48:27;95770.78;;;19.62;95.75
19457;BME280;9867;48.094;11.478;2022-07-11T07:51:00;95782.22;;;19.61;95.68
19457;BME280;9867;48.094;11.478;2022-07-11T07:53:28;95781.31;;;19.39;100.00
19457;BME280;9867;48.094;11.478;2022-07-11T07:55:57;95786.03;;;19.25;100.00
19457;BME280;9867;48.094;11.478;2022-07-11T07:58:25;95787.06;;;19.41;97.08
19457;BME280;9867;48.094;11.478;2022-07-11T08:00:53;95787.72;;;19.48;95.66
19457;BME280;9867;48.094;11.478;2022-07-11T08:03:38;95775.50;;;19.03;93.03
19457;BME280;9867;48.094;11.478;2022-07-11T08:06:06;95777.50;;;19.13;88.27
19457;BME280;9867;48.094;11.478;2022-07-11T08:08:34;95776.16;;;19.11;91.29
19457;BME280;9867;48.094;11.478;2022-07-11T08:11:03;95772.03;;;19.77;89.46
19457;BME280;9867;48.094;11.478;2022-07-11T08:13:52;95784.09;;;20.38;84.78
19457;BME280;9867;48.094;11.478;2022-07-11T08:16:21;95783.31;;;20.81;80.13
19457;BME280;9867;48.094;11.478;2022-07-11T08:18:49;95777.88;;;19.84;81.46
19457;BME280;9867;48.094;11.478;2022-07-11T08:21:17;95778.34;;;19.97;77.47
19457;BME280;9867;48.094;11.478;2022-07-11T08:23:45;95778.44;;;19.52;82.89
19457;BME280;9867;48.094;11.478;2022-07-11T08:26:14;95779.38;;;19.80;81.27
19457;BME280;9867;48.094;11.478;2022-07-11T08:28:42;95772.03;;;19.77;83.19
19457;BME280;9867;48.094;11.478;2022-07-11T08:31:10;95779.91;;;19.98;84.27
19457;BME280;9867;48.094;11.478;2022-07-11T08:33:38;95785.75;;;20.05;80.23
19457;BME280;9867;48.094;11.478;2022-07-11T08:36:06;95778.72;;;20.06;82.39
19457;BME280;9867;48.094;11.478;2022-07-11T08:38:34;95785.13;;;19.98;86.97
19457;BME280;9867;48.094;11.478;2022-07-11T08:41:02;95787.53;;;20.22;88.04
19457;BME280;9867;48.094;11.478;2022-07-11T08:43:32;95788.28;;;20.39;80.35
19457;BME280;9867;48.094;11.478;2022-07-11T08:46:00;95781.72;;;20.36;79.89
19457;BME280;9867;48.094;11.478;2022-07-11T08:48:29;95784.56;;;19.96;87.61
19457;BME280;9867;48.094;11.478;2022-07-11T08:51:00;95790.75;;;19.57;91.42
19457;BME280;9867;48.094;11.478;2022-07-11T08:53:29;95791.31;;;19.30;96.75
19457;BME280;9867;48.094;11.478;2022-07-11T08:55:58;95792.47;;;19.51;97.41
19457;BME280;9867;48.094;11.478;2022-07-11T08:58:26;95799.38;;;19.29;100.00
19457;BME280;9867;48.094;11.478;2022-07-11T09:00:55;95788.19;;;19.45;99.43
19457;BME280;9867;48.094;11.478;2022-07-11T09:03:23;95780.41;;;19.62;99.16
19457;BME280;9867;48.094;11.478;2022-07-11T09:05:51;95783.13;;;19.38;99.42
19457;BME280;9867;48.094;11.478;2022-07-11T09:08:28;95783.97;;;19.72;98.54
19457;BME280;9867;48.094;11.478;2022-07-11T09:10:57;95783.78;;;19.96;94.10
19457;BME280;9867;48.094;11.478;2022-07-11T09:13:27;95782.53;;;20.37;92.51
19457;BME280;9867;48.094;11.478;2022-07-11T09:16:03;95786.19;;;20.19;88.18
19457;BME280;9867;48.094;11.478;2022-07-11T09:18:33;95786.91;;;20.75;88.83
19457;BME280;9867;48.094;11.478;2022-07-11T09:21:04;95780.75;;;20.86;91.53
19457;BME280;9867;48.094;11.478;2022-07-11T09:23:50;95780.78;;;20.42;91.16
19457;BME280;9867;48.094;11.478;2022-07-11T09:26:37;95781.19;;;20.56;80.58
19457;BME280;9867;48.094;11.478;2022-07-11T09:29:07;95774.53;;;20.65;84.96
19457;BME280;9867;48.094;11.478;2022-07-11T09:31:39;95770.38;;;20.26;89.89
19457;BME280;9867;48.094;11.478;2022-07-11T09:34:08;95781.88;;;20.68;88.79
19457;BME280;9867;48.094;11.478;2022-07-11T09:36:41;95777.72;;;20.29;90.12
19457;BME280;9867;48.094;11.478;2022-07-11T09:39:12;95783.09;;;20.39;89.81
19457;BME280;9867;48.094;11.478;2022-07-11T09:41:41;95777.94;;;20.05;92.47
19457;BME280;9867;48.094;11.478;2022-07-11T09:44:12;95782.38;;;19.71;94.66
19457;BME280;9867;48.094;11.478;2022-07-11T09:46:43;95787.25;;;19.85;100.00
19457;BME280;9867;48.094;11.478;2022-07-11T09:49:12;95788.75;;;20.36;92.97
19457;BME280;9867;48.094;11.478;2022-07-11T09:51:41;95787.38;;;20.12;93.24
19457;BME280;9867;48.094;11.478;2022-07-11T09:54:10;95772.28;;;20.30;90.66
19457;BME280;9867;48.094;11.478;2022-07-11T09:56:40;95784.13;;;20.21;97.38
19457;BME280;9867;48.094;11.478;2022-07-11T09:59:23;95779.69;;;20.38;91.75
19457;BME280;9867;48.094;11.478;2022-07-11T10:01:53;95776.72;;;20.13;92.84
19457;BME280;9867;48.094;11.478;2022-07-11T10:04:21;95779.41;;;20.18;92.82
19457;BME280;9867;48.094;11.478;2022-07-11T10:06:50;95776.78;;;20.18;94.20
19457;BME280;9867;48.094;11.478;2022-07-11T10:09:17;95785.47;;;20.24;nan
19457;BME280;9867;48.094;11.478;2022-07-11T10:11:45;95783.53;;;19.97;91.90
19457;BME280;9867;48.094;11.478;2022-07-11T10:14:14;95779.59;;;19.95;95.01
19457;BME280;9867;48.094;11.478;2022-07-11T10:16:50;95796.81;;;20.51;87.70
19457;BME280;9867;48.094;11.478;2022-07-11T10:19:29;95789.22;;;20.71;81.20
19457;BME280;9867;48.094;11.478;2022-07-11T10:22:06;95780.94;;;21.01;79.58
19457;BME280;9867;48.094;11.478;2022-07-11T10:24:45;95795.25;;;20.99;84.88
19457;BME280;9867;48.094;11.478;2022-07-11T10:27:22;95789.63;;;21.12;75.58
19457;BME280;9867;48.094;11.478;2022-07-11T10:29:56;95792.06;;;21.19;72.04
19457;BME280;9867;48.094;11.478;2022-07-11T10:32:24;95796.25;;;21.20;73.84
19457;BME280;9867;48.094;11.478;2022-07-11T10:35:07;95787.31;;;20.89;68.36
19457;BME280;9867;48.094;11.478;2022-07-11T10:37:47;95789.81;;;21.05;71.13
19457;BME280;9867;48.094;11.478;2022-07-11T10:40:45;95792.69;;;21.04;70.57
19457;BME280;9867;48.094;11.478;2022-07-11T10:43:16;95787.16;;;20.52;80.52
19457;BME280;9867;48.094;11.478;2022-07-11T10:46:00;95789.88;;;20.62;79.27
19457;BME280;9867;48.094;11.478;2022-07-11T10:48:29;95795.16;;;20.45;81.84
19457;BME280;9867;48.094;11.478;2022-07-11T10:51:14;95792.72;;;20.82;76.04
19457;BME280;9867;48.094;11.478;2022-07-11T10:53:46;95795.94;;;20.89;83.69
19457;BME280;9867;48.094;11.478;2022-07-11T10:56:27;95797.75;;;20.89;86.03
19457;BME280;9867;48.094;11.478;2022-07-11T10:59:20;95792.13;;;20.53;87.94
19457;BME280;9867;48.094;11.478;2022-07-11T11:02:03;95795.47;;;20.70;88.34
19457;BME280;9867;48.094;11.478;2022-07-11T11:04:45;95798.41;;;21.01;84.86
19457;BME280;9867;48.094;11.478;2022-07-11T11:07:35;95794.28;;;20.83;87.58
19457;BME280;9867;48.094;11.478;2022-07-11T11:13:10;95797.31;;;21.51;75.83
19457;BME280;9867;48.094;11.478;2022-07-11T11:15:40;95789.72;;;21.81;74.97
19457;BME280;9867;48.094;11.478;2022-07-11T11:18:31;95783.84;;;21.96;70.45
19457;BME280;9867;48.094;11.478;2022-07-11T11:21:23;95780.38;;;22.27;67.90
19457;BME280;9867;48.094;11.478;2022-07-11T11:24:05;95779.88;;;22.30;69.31
19457;BME280;9867;48.094;11.478;2022-07-11T11:26:44;95780.72;;;23.13;65.72
19457;BME280;9867;48.094;11.478;2022-07-11T11:29:18;95784.75;;;22.74;63.91
19457;BME280;9867;48.094;11.478;2022-07-11T11:31:52;95766.41;;;22.64;62.41
19457;BME280;9867;48.094;11.478;2022-07-11T11:34:21;95777.22;;;22.77;72.80
19457;BME280;9867;48.094;11.478;2022-07-11T11:37:00;95781.69;;;22.92;64.27
19457;BME280;9867;48.094;11.478;2022-07-11T11:39:32;95783.00;;;22.90;63.19
19457;BME280;9867;48.094;11.478;2022-07-11T11:42:02;95789.47;;;22.77;63.27
19457;BME280;9867;48.094;11.478;2022-07-11T11:44:31;95781.00;;;22.50;68.29
19457;BME280;9867;48.094;11.478;2022-07-11T11:46:59;95780.13;;;22.91;66.86
19457;BME280;9867;48.094;11.478;2022-07-11T11:49:27;95784.16;;;22.57;64.63
19457;BME280;9867;48.094;11.478;2022-07-11T11:51:55;95790.28;;;22.25;66.23
19457;BME280;9867;48.094;11.478;2022-07-11T11:54:24;95785.31;;;22.19;69.22
19457;BME280;9867;48.094;11.478;2022-07-11T11:56:54;95785.44;;;22.02;76.13
19457;BME280;9867;48.094;11.478;2022-07-11T11:59:29;95795.66;;;21.39;83.03
19457;BME280;9867;48.094;11.478;2022-07-11T12:01:57;95784.31;;;21.56;77.74
19457;BME280;9867;48.094;11.478;2022-07-11T12:04:29;95782.72;;;21.87;77.41
19457;BME280;9867;48.094;11.478;2022-07-11T12:06:59;95787.91;;;22.19;76.09
19457;BME280;9867;48.094;11.478;2022-07-11T12:09:28;95786.03;;;22.71;75.39
19457;BME280;9867;48.094;11.478;2022-07-11T12:12:23;95787.75;;;23.18;68.52
19457;BME280;9867;48.094;11.478;2022-07-11T12:15:23;95790.72;;;23.52;73.03
19457;BME280;9867;48.094;11.478;2022-07-11T12:17:55;95787.31;;;23.67;65.75
19457;BME280;9867;48.094;11.478;2022-07-11T12:20:37;95781.47;;;24.21;72.11
19457;BME280;9867;48.094;11.478;2022-07-11T12:23:10;95777.88;;;23.71;56.76
19457;BME280;9867;48.094;11.478;2022-07-11T12:25:47;95773.66;;;23.29;59.99
19457;BME280;9867;48.094;11.478;2022-07-11T12:28:17;95786.97;;;23.18;62.81
19457;BME280;9867;48.094;11.478;2022-07-11T12:30:45;95773.63;;;21.94;69.66
19457;BME280;9867;48.094;11.478;2022-07-11T12:33:14;95781.69;;;21.56;73.13
19457;BME280;9867;48.094;11.478;2022-07-11T12:35:56;95779.66;;;21.95;74.48
19457;BME280;9867;48.094;11.478;2022-07-11T12:38:25;95780.31;;;21.80;76.19
19457;BME280;9867;48.094;11.478;2022-07-11T12:41:01;95769.59;;;22.14;74.14
19457;BME280;9867;48.094;11.478;2022-07-11T12:43:41;95775.28;;;22.58;77.09
19457;BME280;9867;48.094;11.478;2022-07-11T12:46:28;95774.34;;;22.84;64.68
19457;BME280;9867;48.094;11.478;2022-07-11T12:48:57;95768.00;;;22.70;66.64
19457;BME280;9867;48.094;11.478;2022-07-11T12:51:26;95771.34;;;22.55;70.96
19457;BME280;9867;48.094;11.478;2022-07-11T12:53:59;95770.44;;;22.87;70.98
19457;BME280;9867;48.094;11.478;2022-07-11T12:56:28;95771.41;;;22.75;70.34
19457;BME280;9867;48.094;11.478;2022-07-11T12:58:57;95768.28;;;21.79;78.26
19457;BME280;9867;48.094;11.478;2022-07-11T13:01:25;95771.16;;;22.15;75.23
19457;BME280;9867;48.094;11.478;2022-07-11T13:03:53;95762.59;;;22.29;72.14
19457;BME280;9867;48.094;11.478;2022-07-11T13:06:21;95763.53;;;22.70;74.68
19457;BME280;9867;48.094;11.478;2022-07-11T13:09:03;95762.47;;;22.56;73.58
19457;BME280;9867;48.094;11.478;2022-07-11T13:11:31;95751.88;;;22.98;64.23
19457;BME280;9867;48.094;11.478;2022-07-11T13:14:01;95756.97;;;22.58;69.19
19457;BME280;9867;48.094;11.478;2022-07-11T13:16:29;95758.34;;;22.75;69.68